Time;durP1;ratioP1;P1;durP2;ratioP2;P2;SDS_P1;SDS_P2;PMS_P1;PMS_P2;Temp;Humidity;BMP_temperature;BMP_pressure;BME280_temperature;BME280_humidity;BME280_pressure;Samples;Min_cycle;Max_cycle;Signal;HPM_P1;HPM_P2
2024/03/28 00:01:10;;;;;;;17.03;13.73;;;;;;;;;;5013089;28;20412;-83
2024/03/28 00:03:36;;;;;;;15.93;12.77;;;;;;;;;;5012695;28;20932;-82
2024/03/28 00:06:03;;;;;;;20.03;12.30;;;;;;;;;;5012900;28;20180;-82
2024/03/28 00:08:29;;;;;;;18.93;14.83;;;;;;;;;;5013012;28;20428;-83
2024/03/28 00:10:55;;;;;;;16.90;12.87;;;;;;;;;;5013106;28;20435;-83
2024/03/28 00:13:22;;;;;;;15.67;12.60;;;;;;;;;;5013089;28;20413;-81
2024/03/28 00:16:00;;;;;;;16.97;13.40;;;;;;;;;;5012802;28;20549;-82
2024/03/28 00:18:26;;;;;;;17.43;13.70;;;;;;;;;;5013061;28;20429;-82
2024/03/28 00:21:03;;;;;;;18.10;13.83;;;;;;;;;;5012619;28;20924;-82
2024/03/28 00:23:29;;;;;;;17.50;14.37;;;;;;;;;;5011715;28;20461;-82
2024/03/28 00:25:56;;;;;;;17.23;12.80;;;;;;;;;;5013037;28;20437;-82
2024/03/28 00:28:22;;;;;;;22.37;15.90;;;;;;;;;;5012990;28;20472;-82
2024/03/28 00:30:48;;;;;;;20.13;13.90;;;;;;;;;;5012980;28;20414;-82
2024/03/28 00:33:15;;;;;;;19.13;14.63;;;;;;;;;;5012827;28;20521;-81
2024/03/28 00:35:45;;;;;;;22.80;15.40;;;;;;;;;;5012394;28;20561;-81
2024/03/28 00:38:11;;;;;;;22.30;15.47;;;;;;;;;;5012849;28;20453;-81
2024/03/28 00:40:37;;;;;;;20.37;15.63;;;;;;;;;;5012860;28;20869;-80
2024/03/28 00:43:04;;;;;;;22.10;16.23;;;;;;;;;;5011494;28;20945;-80
2024/03/28 00:45:30;;;;;;;24.93;17.57;;;;;;;;;;5012778;28;20556;-81
2024/03/28 00:47:56;;;;;;;23.50;16.70;;;;;;;;;;5012652;28;20417;-81
2024/03/28 00:50:22;;;;;;;18.90;15.00;;;;;;;;;;5012340;28;20427;-81
2024/03/28 00:52:48;;;;;;;21.40;16.13;;;;;;;;;;5013758;28;20502;-80
2024/03/28 00:55:14;;;;;;;19.60;15.03;;;;;;;;;;5016174;28;20451;-81
2024/03/28 00:57:40;;;;;;;21.13;16.67;;;;;;;;;;5016158;28;20422;-80
2024/03/28 01:00:07;;;;;;;22.47;17.80;;;;;;;;;;5016150;28;20414;-81
2024/03/28 01:02:33;;;;;;;19.60;15.33;;;;;;;;;;5016064;28;20462;-81
2024/03/28 01:04:59;;;;;;;22.40;16.30;;;;;;;;;;5015659;28;20481;-81
2024/03/28 01:07:25;;;;;;;22.37;17.63;;;;;;;;;;5016036;28;20470;-81
2024/03/28 01:09:51;;;;;;;24.53;18.60;;;;;;;;;;5015976;28;20181;-81
2024/03/28 01:12:16;;;;;;;21.30;15.33;;;;;;;;;;5015924;28;20428;-80
2024/03/28 01:14:42;;;;;;;21.90;18.07;;;;;;;;;;5015573;28;20977;-80
2024/03/28 01:17:08;;;;;;;20.17;16.77;;;;;;;;;;5015716;28;20218;-81
2024/03/28 01:19:34;;;;;;;23.20;17.13;;;;;;;;;;5015413;28;20438;-81
2024/03/28 01:22:00;;;;;;;22.17;18.13;;;;;;;;;;5015659;28;20420;-81
2024/03/28 01:24:26;;;;;;;23.77;17.90;;;;;;;;;;5015743;28;20416;-81
2024/03/28 01:26:52;;;;;;;21.97;18.37;;;;;;;;;;5014379;28;20176;-81
2024/03/28 01:29:18;;;;;;;26.17;19.23;;;;;;;;;;5015551;28;20177;-81
2024/03/28 01:31:44;;;;;;;26.27;20.07;;;;;;;;;;5015555;28;20257;-81
2024/03/28 01:34:09;;;;;;;24.57;19.27;;;;;;;;;;5015237;28;20279;-81
2024/03/28 01:36:35;;;;;;;24.87;20.87;;;;;;;;;;5015442;28;20970;-81
2024/03/28 01:39:01;;;;;;;22.80;18.53;;;;;;;;;;5015433;28;20174;-81
2024/03/28 01:41:27;;;;;;;21.40;18.67;;;;;;;;;;5015375;28;20571;-81
2024/03/28 01:43:53;;;;;;;31.17;18.60;;;;;;;;;;5015296;28;20410;-81
2024/03/28 01:46:21;;;;;;;27.50;20.50;;;;;;;;;;5015145;28;20429;-81
2024/03/28 01:48:47;;;;;;;24.70;19.77;;;;;;;;;;5014860;28;20411;-81
2024/03/28 01:51:13;;;;;;;27.17;19.40;;;;;;;;;;5015185;28;20418;-81
2024/03/28 01:53:40;;;;;;;25.47;19.70;;;;;;;;;;5015139;28;20900;-80
2024/03/28 01:56:06;;;;;;;25.80;21.40;;;;;;;;;;5015049;28;20627;-79
2024/03/28 01:58:32;;;;;;;27.00;19.13;;;;;;;;;;5015047;28;20786;-79
2024/03/28 02:00:59;;;;;;;26.00;19.30;;;;;;;;;;5014899;28;20425;-81
2024/03/28 02:03:25;;;;;;;26.60;20.10;;;;;;;;;;5014354;28;20414;-81
2024/03/28 02:05:51;;;;;;;27.00;19.53;;;;;;;;;;5014134;28;20414;-81
2024/03/28 02:08:18;;;;;;;24.93;19.87;;;;;;;;;;5013626;28;20524;-81
2024/03/28 02:10:44;;;;;;;23.80;18.63;;;;;;;;;;5014890;28;20432;-81
2024/03/28 02:13:11;;;;;;;27.87;21.07;;;;;;;;;;5014772;28;20422;-81
2024/03/28 02:15:38;;;;;;;25.80;20.80;;;;;;;;;;5014470;28;20554;-81
2024/03/28 02:18:04;;;;;;;23.83;21.20;;;;;;;;;;5014731;28;20414;-81
2024/03/28 02:20:30;;;;;;;30.07;20.80;;;;;;;;;;5014212;28;20409;-80
2024/03/28 02:22:56;;;;;;;27.90;21.93;;;;;;;;;;5014625;28;20456;-80
2024/03/28 02:25:21;;;;;;;26.10;18.90;;;;;;;;;;5013270;28;20638;-80
2024/03/28 02:27:47;;;;;;;26.47;21.33;;;;;;;;;;5014481;28;20429;-80
2024/03/28 02:30:13;;;;;;;30.90;21.20;;;;;;;;;;5014516;28;20418;-80
2024/03/28 02:32:39;;;;;;;25.30;21.17;;;;;;;;;;5014490;28;20628;-80
2024/03/28 02:35:06;;;;;;;26.30;18.80;;;;;;;;;;5012728;28;20417;-80
2024/03/28 02:37:32;;;;;;;27.57;19.53;;;;;;;;;;5014375;28;20550;-80
2024/03/28 02:39:58;;;;;;;26.37;19.97;;;;;;;;;;5014241;28;20413;-80
2024/03/28 02:42:25;;;;;;;27.40;20.80;;;;;;;;;;5014199;28;20894;-80
2024/03/28 02:44:50;;;;;;;24.63;20.53;;;;;;;;;;5014239;28;20463;-81
2024/03/28 02:47:16;;;;;;;26.33;20.70;;;;;;;;;;5014123;28;20503;-81
2024/03/28 02:49:42;;;;;;;28.50;21.90;;;;;;;;;;5013876;28;20417;-80
2024/03/28 02:52:08;;;;;;;25.93;20.00;;;;;;;;;;5014126;28;20414;-80
2024/03/28 02:54:34;;;;;;;26.93;19.73;;;;;;;;;;5013984;28;20411;-80
2024/03/28 02:57:04;;;;;;;26.03;18.77;;;;;;;;;;5013791;28;20483;-81
2024/03/28 02:59:30;;;;;;;28.90;20.83;;;;;;;;;;5013968;28;20410;-81
2024/03/28 03:01:56;;;;;;;22.83;19.80;;;;;;;;;;5013897;28;20419;-81
2024/03/28 03:04:23;;;;;;;25.03;19.37;;;;;;;;;;5013556;28;20414;-81
2024/03/28 03:06:49;;;;;;;33.73;21.83;;;;;;;;;;5013800;28;20766;-81
2024/03/28 03:09:15;;;;;;;29.03;20.90;;;;;;;;;;5013820;28;20414;-81
2024/03/28 03:11:41;;;;;;;22.87;19.20;;;;;;;;;;5013716;28;20928;-81
2024/03/28 03:14:07;;;;;;;26.97;22.33;;;;;;;;;;5013527;28;20465;-80
2024/03/28 03:16:33;;;;;;;26.67;22.23;;;;;;;;;;5013418;28;20203;-81
2024/03/28 03:19:00;;;;;;;31.83;23.50;;;;;;;;;;5012101;28;20773;-80
2024/03/28 03:21:26;;;;;;;25.03;21.30;;;;;;;;;;5013128;28;20183;-81
2024/03/28 03:24:00;;;;;;;31.20;24.43;;;;;;;;;;5001283;28;20438;-81
2024/03/28 03:26:30;;;;;;;26.80;21.63;;;;;;;;;;5002177;28;20767;-79
2024/03/28 03:34:37;;;;;;;30.77;24.87;;;;;;;;;;5002468;28;20399;-79
2024/03/28 03:37:10;;;;;;;32.90;22.10;;;;;;;;;;5002313;28;20824;-80
2024/03/28 03:39:37;;;;;;;26.67;21.40;;;;;;;;;;5012875;28;20421;-80
2024/03/28 03:42:03;;;;;;;24.77;22.07;;;;;;;;;;5012275;28;20418;-80
2024/03/28 03:44:29;;;;;;;25.63;21.07;;;;;;;;;;5012647;28;20488;-80
2024/03/28 03:46:55;;;;;;;27.00;22.10;;;;;;;;;;5012845;28;20954;-81
2024/03/28 03:49:21;;;;;;;28.30;21.67;;;;;;;;;;5012337;28;20413;-80
2024/03/28 03:51:47;;;;;;;32.60;23.90;;;;;;;;;;5013315;28;20754;-80
2024/03/28 03:54:13;;;;;;;27.87;22.43;;;;;;;;;;5013218;28;20405;-80
2024/03/28 03:56:39;;;;;;;35.30;25.10;;;;;;;;;;5013172;28;20543;-80
2024/03/28 03:59:05;;;;;;;28.17;21.87;;;;;;;;;;5013276;28;20419;-80
2024/03/28 04:01:31;;;;;;;28.20;21.10;;;;;;;;;;5011986;28;20841;-81
2024/03/28 04:03:57;;;;;;;28.93;23.07;;;;;;;;;;5011620;28;20177;-80
2024/03/28 04:06:23;;;;;;;29.00;22.47;;;;;;;;;;5013117;28;20186;-80
2024/03/28 04:08:49;;;;;;;31.30;23.27;;;;;;;;;;5013161;28;20410;-80
2024/03/28 04:11:15;;;;;;;28.23;23.10;;;;;;;;;;5013145;28;20446;-81
2024/03/28 04:13:41;;;;;;;31.43;23.20;;;;;;;;;;5012858;28;20441;-80
2024/03/28 04:16:07;;;;;;;32.87;23.60;;;;;;;;;;5013030;28;20563;-80
2024/03/28 04:18:33;;;;;;;31.23;24.70;;;;;;;;;;5012737;28;20414;-80
2024/03/28 04:20:59;;;;;;;35.90;23.67;;;;;;;;;;5012994;28;20476;-80
2024/03/28 04:23:25;;;;;;;27.87;21.50;;;;;;;;;;5012956;28;20424;-80
2024/03/28 04:25:54;;;;;;;35.50;23.70;;;;;;;;;;5013047;28;20803;-80
2024/03/28 04:28:20;;;;;;;31.27;21.00;;;;;;;;;;5014859;28;20809;-80
2024/03/28 04:30:46;;;;;;;29.47;21.67;;;;;;;;;;5016782;28;20425;-80
2024/03/28 04:33:12;;;;;;;24.80;19.27;;;;;;;;;;5016419;28;20425;-80
2024/03/28 04:35:38;;;;;;;31.23;22.33;;;;;;;;;;5016504;28;20472;-80
2024/03/28 04:38:04;;;;;;;28.23;20.97;;;;;;;;;;5015327;28;20882;-81
2024/03/28 04:40:30;;;;;;;25.50;19.57;;;;;;;;;;5016576;28;20466;-80
2024/03/28 04:42:56;;;;;;;28.40;20.50;;;;;;;;;;5016558;28;20428;-80
2024/03/28 04:45:22;;;;;;;27.93;19.07;;;;;;;;;;5016440;28;20777;-80
2024/03/28 04:47:48;;;;;;;26.10;19.27;;;;;;;;;;5016209;28;20508;-80
2024/03/28 04:50:15;;;;;;;27.97;20.93;;;;;;;;;;5016166;28;20415;-80
2024/03/28 04:52:41;;;;;;;24.30;19.37;;;;;;;;;;5016330;28;20417;-80
2024/03/28 04:55:07;;;;;;;27.97;19.87;;;;;;;;;;5014951;28;20418;-80
2024/03/28 04:57:34;;;;;;;29.73;20.90;;;;;;;;;;5016220;28;20421;-80
2024/03/28 05:00:00;;;;;;;29.90;20.87;;;;;;;;;;5016190;28;20414;-80
2024/03/28 05:02:25;;;;;;;30.00;21.17;;;;;;;;;;5016033;28;20420;-80
2024/03/28 05:04:52;;;;;;;27.00;20.40;;;;;;;;;;5015797;28;20839;-79
2024/03/28 05:07:17;;;;;;;24.70;18.50;;;;;;;;;;5016046;28;20558;-79
2024/03/28 05:09:47;;;;;;;28.57;20.43;;;;;;;;;;5015969;28;20412;-79
2024/03/28 05:12:13;;;;;;;30.03;21.40;;;;;;;;;;5015980;28;20420;-79
2024/03/28 05:14:39;;;;;;;29.63;21.23;;;;;;;;;;5015698;28;20865;-79
2024/03/28 05:17:06;;;;;;;26.70;20.40;;;;;;;;;;5015705;28;20479;-79
2024/03/28 05:19:32;;;;;;;28.50;19.03;;;;;;;;;;5015490;28;20430;-79
2024/03/28 05:21:58;;;;;;;30.10;21.43;;;;;;;;;;5015790;28;20425;-80
2024/03/28 05:24:23;;;;;;;26.27;19.87;;;;;;;;;;5015749;28;20440;-79
2024/03/28 05:26:50;;;;;;;25.87;19.67;;;;;;;;;;5015695;28;20422;-80
2024/03/28 05:29:16;;;;;;;28.77;19.73;;;;;;;;;;5015663;28;20454;-81
2024/03/28 05:31:42;;;;;;;21.57;17.00;;;;;;;;;;5014279;28;20433;-80
2024/03/28 05:34:08;;;;;;;28.10;16.23;;;;;;;;;;5015143;28;20471;-79
2024/03/28 05:36:37;;;;;;;20.37;15.63;;;;;;;;;;5015473;28;20512;-80
2024/03/28 05:39:04;;;;;;;20.77;14.43;;;;;;;;;;5001173;28;20421;-80
2024/03/28 05:41:30;;;;;;;15.53;12.33;;;;;;;;;;4995742;28;20421;-82
2024/03/28 05:43:56;;;;;;;15.73;12.00;;;;;;;;;;4995668;28;20402;-79
2024/03/28 05:46:22;;;;;;;19.37;13.00;;;;;;;;;;4995758;28;20771;-80
2024/03/28 05:48:48;;;;;;;18.20;12.03;;;;;;;;;;4995415;28;20171;-81
2024/03/28 05:51:14;;;;;;;17.80;11.13;;;;;;;;;;4995725;28;20508;-81
2024/03/28 05:53:45;;;;;;;15.27;11.23;;;;;;;;;;4995633;28;20418;-81
2024/03/28 05:56:11;;;;;;;19.10;11.73;;;;;;;;;;4995437;28;20478;-81
2024/03/28 05:58:37;;;;;;;14.10;10.40;;;;;;;;;;4995487;28;20934;-81
2024/03/28 06:01:03;;;;;;;14.00;9.80;;;;;;;;;;4995364;28;20164;-81
2024/03/28 06:03:28;;;;;;;11.87;9.80;;;;;;;;;;4994956;28;20695;-81
2024/03/28 06:05:54;;;;;;;12.80;8.17;;;;;;;;;;4995287;28;20438;-82
2024/03/28 06:08:20;;;;;;;9.50;6.90;;;;;;;;;;4995267;28;20199;-81
2024/03/28 06:10:46;;;;;;;11.07;6.53;;;;;;;;;;4995092;28;20183;-82
2024/03/28 06:13:12;;;;;;;12.57;7.20;;;;;;;;;;4995126;28;20414;-81
2024/03/28 06:15:38;;;;;;;9.57;6.70;;;;;;;;;;4994918;28;20565;-81
2024/03/28 06:18:04;;;;;;;11.90;6.13;;;;;;;;;;4994733;28;20839;-81
2024/03/28 06:20:30;;;;;;;9.83;5.87;;;;;;;;;;4995086;28;20399;-81
2024/03/28 06:22:56;;;;;;;7.00;4.73;;;;;;;;;;4995144;28;20812;-82
2024/03/28 06:25:22;;;;;;;7.30;4.60;;;;;;;;;;4994927;28;20418;-81
2024/03/28 06:27:48;;;;;;;10.00;5.83;;;;;;;;;;4994922;28;20418;-80
2024/03/28 06:30:25;;;;;;;4.80;3.50;;;;;;;;;;4994834;28;20432;-80
2024/03/28 06:32:51;;;;;;;4.43;2.87;;;;;;;;;;4994762;28;20439;-80
2024/03/28 06:35:17;;;;;;;4.97;3.20;;;;;;;;;;5014306;28;20515;-80
2024/03/28 06:37:43;;;;;;;4.00;2.53;;;;;;;;;;5014281;28;20421;-81
2024/03/28 06:40:10;;;;;;;4.20;2.57;;;;;;;;;;5014215;28;20420;-80
2024/03/28 06:42:36;;;;;;;5.40;2.73;;;;;;;;;;5014384;28;20432;-80
2024/03/28 06:45:02;;;;;;;3.50;1.70;;;;;;;;;;5014203;28;20428;-79
2024/03/28 06:47:28;;;;;;;4.23;1.47;;;;;;;;;;5014015;28;21110;-81
2024/03/28 06:49:54;;;;;;;4.30;1.23;;;;;;;;;;5013622;28;20414;-81
2024/03/28 06:52:20;;;;;;;3.30;1.90;;;;;;;;;;5013838;28;20821;-81
2024/03/28 06:54:46;;;;;;;3.43;1.83;;;;;;;;;;5012821;28;20186;-81
2024/03/28 06:57:12;;;;;;;2.70;1.47;;;;;;;;;;5013945;28;20828;-80
2024/03/28 06:59:38;;;;;;;2.43;1.47;;;;;;;;;;5013983;28;20412;-81
2024/03/28 07:02:04;;;;;;;2.10;0.90;;;;;;;;;;5013845;28;20845;-81
2024/03/28 07:04:30;;;;;;;1.83;1.03;;;;;;;;;;5013421;28;20913;-81
2024/03/28 07:06:56;;;;;;;2.67;1.03;;;;;;;;;;5013858;28;20421;-80
2024/03/28 07:09:22;;;;;;;2.97;1.30;;;;;;;;;;5012543;28;20190;-80
2024/03/28 07:11:48;;;;;;;2.80;1.20;;;;;;;;;;5014221;28;20936;-80
2024/03/28 07:14:16;;;;;;;2.73;0.83;;;;;;;;;;5013593;28;20468;-81
2024/03/28 07:16:42;;;;;;;2.30;0.87;;;;;;;;;;5013581;28;20478;-80
2024/03/28 07:19:08;;;;;;;2.53;1.13;;;;;;;;;;5013395;28;20892;-80
2024/03/28 07:21:34;;;;;;;2.30;0.70;;;;;;;;;;5013981;28;20419;-80
2024/03/28 07:24:00;;;;;;;3.30;1.48;;;;;;;;;;5013327;28;20530;-80
2024/03/28 07:26:26;;;;;;;2.33;1.33;;;;;;;;;;5013949;28;20182;-80
2024/03/28 07:28:52;;;;;;;2.50;1.43;;;;;;;;;;5014048;28;20925;-80
2024/03/28 07:31:18;;;;;;;2.20;1.37;;;;;;;;;;5013899;28;20417;-80
2024/03/28 07:33:45;;;;;;;2.83;1.47;;;;;;;;;;5013608;28;20404;-79
2024/03/28 07:36:13;;;;;;;2.63;1.50;;;;;;;;;;5013588;28;20477;-79
2024/03/28 07:38:39;;;;;;;2.77;0.73;;;;;;;;;;5013800;28;20415;-79
2024/03/28 07:41:05;;;;;;;2.30;1.27;;;;;;;;;;5012605;28;20432;-80
2024/03/28 07:43:31;;;;;;;1.90;0.80;;;;;;;;;;5013533;28;20423;-80
2024/03/28 07:46:04;;;;;;;1.90;0.80;;;;;;;;;;5013697;28;20428;-80
2024/03/28 07:48:30;;;;;;;1.93;0.80;;;;;;;;;;5013276;28;20782;-80
2024/03/28 07:50:56;;;;;;;1.53;0.77;;;;;;;;;;5013615;28;20432;-80
2024/03/28 07:53:22;;;;;;;2.40;1.70;;;;;;;;;;5013361;28;20851;-79
2024/03/28 07:55:48;;;;;;;2.43;1.00;;;;;;;;;;5013244;28;20464;-78
2024/03/28 07:58:14;;;;;;;2.20;0.90;;;;;;;;;;5011944;28;20465;-80
2024/03/28 08:00:40;;;;;;;2.17;0.90;;;;;;;;;;5013249;28;20419;-80
2024/03/28 08:03:06;;;;;;;3.07;0.83;;;;;;;;;;5014604;28;20440;-80
2024/03/28 08:05:32;;;;;;;2.30;1.00;;;;;;;;;;5016553;28;20781;-80
2024/03/28 08:07:58;;;;;;;1.97;1.00;;;;;;;;;;5015841;28;20170;-79
2024/03/28 08:10:24;;;;;;;3.23;1.20;;;;;;;;;;5017168;28;20273;-80
2024/03/28 08:12:50;;;;;;;2.50;0.90;;;;;;;;;;5017087;28;20421;-79
2024/03/28 08:15:18;;;;;;;1.97;0.50;;;;;;;;;;5016846;28;20817;-79
2024/03/28 08:17:44;;;;;;;2.90;1.13;;;;;;;;;;5015393;28;20240;-79
2024/03/28 08:20:16;;;;;;;2.50;1.83;;;;;;;;;;5016878;28;20414;-79
2024/03/28 08:22:43;;;;;;;4.10;1.73;;;;;;;;;;5016802;28;20428;-79
2024/03/28 08:25:09;;;;;;;2.83;1.43;;;;;;;;;;5016813;28;20773;-80
2024/03/28 08:27:35;;;;;;;3.30;1.27;;;;;;;;;;5015513;28;20462;-79
2024/03/28 08:30:01;;;;;;;4.13;2.20;;;;;;;;;;5016661;28;20498;-79
2024/03/28 08:32:27;;;;;;;5.00;2.13;;;;;;;;;;5016348;28;20452;-80
2024/03/28 08:34:53;;;;;;;3.47;1.33;;;;;;;;;;5016710;28;20432;-79
2024/03/28 08:37:19;;;;;;;3.90;2.17;;;;;;;;;;5016488;28;20481;-79
2024/03/28 08:39:45;;;;;;;2.90;1.20;;;;;;;;;;5016517;28;20908;-80
2024/03/28 08:42:11;;;;;;;3.40;1.60;;;;;;;;;;5016564;28;20431;-79
2024/03/28 08:44:37;;;;;;;3.43;2.00;;;;;;;;;;5016491;28;20413;-79
2024/03/28 08:47:03;;;;;;;3.47;1.50;;;;;;;;;;5016556;28;20910;-79
2024/03/28 08:49:29;;;;;;;4.27;1.60;;;;;;;;;;5016094;28;20898;-79
2024/03/28 08:51:56;;;;;;;3.27;1.47;;;;;;;;;;5016292;28;20417;-79
2024/03/28 08:54:24;;;;;;;4.90;1.90;;;;;;;;;;5016286;28;20460;-79
2024/03/28 08:56:50;;;;;;;3.90;2.27;;;;;;;;;;5016175;28;21039;-80
2024/03/28 08:59:19;;;;;;;3.43;1.80;;;;;;;;;;5016244;28;20413;-79
2024/03/28 09:01:45;;;;;;;4.53;2.03;;;;;;;;;;5016163;28;20406;-79
2024/03/28 09:04:14;;;;;;;4.50;2.40;;;;;;;;;;5015802;28;20418;-79
2024/03/28 09:06:40;;;;;;;3.73;2.20;;;;;;;;;;5015992;28;20524;-80
2024/03/28 09:09:07;;;;;;;3.90;1.97;;;;;;;;;;5016085;28;20898;-79
2024/03/28 09:11:33;;;;;;;4.43;2.67;;;;;;;;;;5015934;28;20417;-79
2024/03/28 09:13:59;;;;;;;2.70;1.03;;;;;;;;;;5015205;28;20465;-79
2024/03/28 09:16:26;;;;;;;3.37;1.53;;;;;;;;;;5015889;28;20478;-79
2024/03/28 09:18:52;;;;;;;3.53;1.87;;;;;;;;;;5015459;28;20413;-79
2024/03/28 09:21:17;;;;;;;2.93;1.77;;;;;;;;;;5015862;28;20414;-79
2024/03/28 09:23:43;;;;;;;4.27;1.70;;;;;;;;;;5015832;28;20950;-79
2024/03/28 09:26:09;;;;;;;3.30;2.00;;;;;;;;;;5015725;28;20182;-79
2024/03/28 09:28:36;;;;;;;3.60;1.90;;;;;;;;;;5014441;28;20779;-80
2024/03/28 09:31:01;;;;;;;2.20;1.47;;;;;;;;;;5015607;28;20414;-79
2024/03/28 09:33:28;;;;;;;2.23;0.77;;;;;;;;;;5015211;28;20423;-79
2024/03/28 09:35:54;;;;;;;1.70;1.40;;;;;;;;;;5015596;28;20459;-79
2024/03/28 09:38:20;;;;;;;2.50;1.80;;;;;;;;;;5015582;28;20836;-79
2024/03/28 09:40:51;;;;;;;1.50;0.83;;;;;;;;;;5015485;28;20408;-79
2024/03/28 09:43:18;;;;;;;2.90;1.60;;;;;;;;;;5015610;28;20798;-79
2024/03/28 09:45:44;;;;;;;1.90;0.80;;;;;;;;;;5015354;28;20399;-79
2024/03/28 09:48:10;;;;;;;1.50;0.90;;;;;;;;;;5014882;28;20494;-79
2024/03/28 09:50:39;;;;;;;2.63;0.50;;;;;;;;;;5015226;28;20908;-79
2024/03/28 09:53:06;;;;;;;1.30;0.50;;;;;;;;;;5015234;28;20411;-79
2024/03/28 09:55:33;;;;;;;1.03;0.30;;;;;;;;;;5015103;28;20898;-79
2024/03/28 09:58:02;;;;;;;1.23;0.40;;;;;;;;;;5015131;28;20418;-79
2024/03/28 10:00:28;;;;;;;1.53;0.30;;;;;;;;;;5015051;28;20426;-79
2024/03/28 10:02:57;;;;;;;0.90;0.60;;;;;;;;;;5014652;28;20428;-79
2024/03/28 10:05:24;;;;;;;1.57;0.37;;;;;;;;;;5015030;28;20413;-80
2024/03/28 10:07:51;;;;;;;0.60;0.20;;;;;;;;;;5014982;28;20429;-80
2024/03/28 10:10:17;;;;;;;1.20;0.30;;;;;;;;;;5014832;28;20749;-79
2024/03/28 10:12:54;;;;;;;0.70;0.40;;;;;;;;;;5013584;28;20419;-79
2024/03/28 10:15:20;;;;;;;1.33;0.30;;;;;;;;;;5014516;28;20497;-80
2024/03/28 10:17:46;;;;;;;0.60;0.27;;;;;;;;;;5014407;28;20462;-80
2024/03/28 10:20:13;;;;;;;0.77;0.20;;;;;;;;;;5014772;28;20237;-80
2024/03/28 10:22:43;;;;;;;0.60;0.40;;;;;;;;;;5014599;28;20457;-80
2024/03/28 10:25:23;;;;;;;0.93;0.30;;;;;;;;;;5013647;28;20451;-80
2024/03/28 10:27:49;;;;;;;0.50;0.20;;;;;;;;;;5014430;28;20416;-80
2024/03/28 10:30:22;;;;;;;0.53;0.20;;;;;;;;;;5014580;28;20929;-80
2024/03/28 10:32:58;;;;;;;0.67;0.20;;;;;;;;;;5014146;28;20423;-80
2024/03/28 10:35:24;;;;;;;2.63;0.30;;;;;;;;;;5014480;28;20421;-81
2024/03/28 10:37:59;;;;;;;0.70;0.20;;;;;;;;;;5014392;28;20413;-81
2024/03/28 10:40:27;;;;;;;0.50;0.27;;;;;;;;;;5013197;28;20271;-81
2024/03/28 10:42:53;;;;;;;0.50;0.20;;;;;;;;;;5014233;28;20513;-81
2024/03/28 10:45:23;;;;;;;0.73;0.20;;;;;;;;;;5014395;28;20414;-81
2024/03/28 10:47:49;;;;;;;0.50;0.20;;;;;;;;;;5013810;28;20476;-81
2024/03/28 10:50:19;;;;;;;1.10;0.20;;;;;;;;;;5014192;28;20399;-81
2024/03/28 10:52:50;;;;;;;0.83;0.20;;;;;;;;;;5012865;28;20484;-81
2024/03/28 10:55:19;;;;;;;3.33;0.97;;;;;;;;;;5012839;28;20942;-81
2024/03/28 10:57:46;;;;;;;1.30;0.20;;;;;;;;;;5014089;28;20456;-81
2024/03/28 11:00:14;;;;;;;0.50;0.20;;;;;;;;;;5014062;28;20414;-79
2024/03/28 11:02:40;;;;;;;1.00;0.20;;;;;;;;;;5013689;28;20417;-78
2024/03/28 11:05:08;;;;;;;1.37;0.30;;;;;;;;;;5013875;28;20772;-80
2024/03/28 11:07:35;;;;;;;0.43;0.20;;;;;;;;;;5013787;28;20420;-79
2024/03/28 11:10:00;;;;;;;2.23;0.53;;;;;;;;;;5013961;28;20402;-81
2024/03/28 11:12:30;;;;;;;1.07;0.20;;;;;;;;;;5013775;28;20417;-80
2024/03/28 11:14:58;;;;;;;0.77;0.53;;;;;;;;;;5013571;28;20527;-81
2024/03/28 11:17:24;;;;;;;1.13;0.53;;;;;;;;;;5013192;28;21006;-81
2024/03/28 11:20:03;;;;;;;1.07;0.43;;;;;;;;;;5012448;28;20406;-81
2024/03/28 11:22:32;;;;;;;1.33;0.73;;;;;;;;;;5013626;28;20205;-81
2024/03/28 11:24:58;;;;;;;1.90;0.63;;;;;;;;;;5012320;28;20417;-81
2024/03/28 11:27:24;;;;;;;1.00;0.77;;;;;;;;;;5013546;28;20418;-82
2024/03/28 11:29:54;;;;;;;1.83;0.67;;;;;;;;;;5013551;28;20175;-81
2024/03/28 11:32:23;;;;;;;2.30;1.10;;;;;;;;;;5013342;28;20233;-81
2024/03/28 11:34:49;;;;;;;1.90;0.97;;;;;;;;;;5013523;28;20509;-81
2024/03/28 11:37:21;;;;;;;1.53;1.33;;;;;;;;;;5013160;28;20548;-81
2024/03/28 11:39:47;;;;;;;1.57;1.00;;;;;;;;;;5013448;28;20925;-81
2024/03/28 11:42:16;;;;;;;2.40;0.83;;;;;;;;;;5013468;28;20418;-82
2024/03/28 11:44:42;;;;;;;1.50;0.87;;;;;;;;;;5013471;28;20421;-81
2024/03/28 11:47:09;;;;;;;1.90;0.90;;;;;;;;;;5012956;28;20418;-82
2024/03/28 11:49:36;;;;;;;1.90;1.30;;;;;;;;;;5013312;28;20262;-82
2024/03/28 11:52:02;;;;;;;2.77;1.43;;;;;;;;;;5013221;28;20847;-82
2024/03/28 11:54:28;;;;;;;1.83;0.90;;;;;;;;;;5013225;28;20425;-80
2024/03/28 11:56:53;;;;;;;2.47;1.30;;;;;;;;;;5013132;28;20721;-81
2024/03/28 11:59:20;;;;;;;2.57;1.40;;;;;;;;;;5011811;28;20698;-80
2024/03/28 12:01:46;;;;;;;2.13;1.00;;;;;;;;;;5012742;28;20175;-80
2024/03/28 12:04:21;;;;;;;1.70;1.40;;;;;;;;;;5013088;28;20414;-80
2024/03/28 12:06:47;;;;;;;4.17;1.80;;;;;;;;;;5013213;28;20491;-81
2024/03/28 12:09:12;;;;;;;3.00;1.67;;;;;;;;;;5013065;28;20986;-80
2024/03/28 12:11:38;;;;;;;1.80;0.90;;;;;;;;;;5013033;28;20180;-80
2024/03/28 12:14:04;;;;;;;1.30;1.20;;;;;;;;;;5012853;28;20246;-79
2024/03/28 12:16:30;;;;;;;2.00;1.17;;;;;;;;;;5013034;28;20663;-80
2024/03/28 12:19:03;;;;;;;1.30;1.00;;;;;;;;;;5012836;28;20414;-79
2024/03/28 12:21:29;;;;;;;1.60;0.90;;;;;;;;;;5013277;28;20631;-79
2024/03/28 12:23:55;;;;;;;2.00;0.97;;;;;;;;;;5012769;28;20432;-79
2024/03/28 12:26:23;;;;;;;2.20;1.40;;;;;;;;;;5012855;28;20851;-79
2024/03/28 12:28:49;;;;;;;1.57;0.97;;;;;;;;;;5012764;28;20424;-79
2024/03/28 12:31:22;;;;;;;2.00;0.80;;;;;;;;;;5011426;28;20423;-79
2024/03/28 12:33:48;;;;;;;3.00;0.93;;;;;;;;;;5012223;28;20425;-78
2024/03/28 12:36:17;;;;;;;1.90;1.20;;;;;;;;;;5012605;28;20479;-79
2024/03/28 12:38:47;;;;;;;1.70;0.90;;;;;;;;;;5012895;28;20411;-79
2024/03/28 12:41:21;;;;;;;1.50;1.30;;;;;;;;;;5012816;28;20821;-80
2024/03/28 12:43:57;;;;;;;2.10;0.77;;;;;;;;;;5012877;28;20923;-80
2024/03/28 12:46:23;;;;;;;5.80;1.00;;;;;;;;;;5011568;28;20505;-80
2024/03/28 12:48:49;;;;;;;2.10;0.70;;;;;;;;;;5013368;28;20508;-79
2024/03/28 12:51:15;;;;;;;1.40;1.03;;;;;;;;;;5016403;28;20442;-81
2024/03/28 12:53:41;;;;;;;1.50;0.80;;;;;;;;;;5016317;28;20198;-79
2024/03/28 12:56:07;;;;;;;2.10;0.43;;;;;;;;;;5016096;28;20480;-79
2024/03/28 12:58:33;;;;;;;1.20;0.97;;;;;;;;;;5016158;28;20438;-79
2024/03/28 13:00:59;;;;;;;0.93;0.70;;;;;;;;;;5016345;28;20410;-83
2024/03/28 13:03:25;;;;;;;1.70;0.40;;;;;;;;;;5015831;28;20236;-84
2024/03/28 13:05:54;;;;;;;1.03;0.50;;;;;;;;;;5016167;28;20819;-79
2024/03/28 13:08:21;;;;;;;1.17;0.70;;;;;;;;;;5016051;28;20815;-79
2024/03/28 13:10:47;;;;;;;3.30;1.67;;;;;;;;;;5014730;28;20472;-81
2024/03/28 13:13:13;;;;;;;1.10;0.60;;;;;;;;;;5016002;28;20443;-78
2024/03/28 13:15:39;;;;;;;1.13;0.50;;;;;;;;;;5015836;28;20871;-78
2024/03/28 13:18:05;;;;;;;1.63;1.00;;;;;;;;;;5015833;28;20795;-79
2024/03/28 13:20:31;;;;;;;1.93;1.13;;;;;;;;;;5015881;28;20902;-78
2024/03/28 13:22:58;;;;;;;1.50;0.80;;;;;;;;;;5015871;28;20439;-81
2024/03/28 13:25:24;;;;;;;0.93;0.50;;;;;;;;;;5015826;28;20788;-78
2024/03/28 13:27:50;;;;;;;3.23;1.37;;;;;;;;;;5015732;28;20426;-78
2024/03/28 13:30:16;;;;;;;4.70;1.43;;;;;;;;;;5015645;28;20880;-81
2024/03/28 13:32:42;;;;;;;1.63;1.43;;;;;;;;;;5014127;28;20425;-79
2024/03/28 13:35:08;;;;;;;2.10;1.13;;;;;;;;;;5015553;28;20420;-80
2024/03/28 13:37:34;;;;;;;2.10;1.43;;;;;;;;;;5014299;28;20481;-82
2024/03/28 13:40:00;;;;;;;2.40;0.90;;;;;;;;;;5015511;28;20777;-81
2024/03/28 13:42:28;;;;;;;3.07;2.10;;;;;;;;;;5015548;28;20413;-79
2024/03/28 13:44:54;;;;;;;1.77;1.30;;;;;;;;;;5015492;28;20407;-79
2024/03/28 13:47:22;;;;;;;1.30;0.93;;;;;;;;;;5014997;28;20420;-84
2024/03/28 13:49:48;;;;;;;3.07;0.70;;;;;;;;;;5015455;28;20818;-81
2024/03/28 13:52:15;;;;;;;2.83;1.17;;;;;;;;;;5015370;28;20503;-81
2024/03/28 13:54:41;;;;;;;2.60;1.60;;;;;;;;;;5015365;28;20433;-80
2024/03/28 13:57:07;;;;;;;2.00;1.03;;;;;;;;;;5015344;28;21043;-80
2024/03/28 13:59:32;;;;;;;0.70;0.33;;;;;;;;;;5015108;28;20492;-79
2024/03/28 14:01:58;;;;;;;2.43;0.40;;;;;;;;;;5014718;28;20424;-79
2024/03/28 14:04:24;;;;;;;0.67;0.20;;;;;;;;;;5014794;28;20432;-80
2024/03/28 14:06:50;;;;;;;0.50;0.30;;;;;;;;;;5014976;28;20562;-80
2024/03/28 14:09:17;;;;;;;1.10;0.30;;;;;;;;;;5014920;28;20374;-79
2024/03/28 14:11:44;;;;;;;1.63;0.30;;;;;;;;;;5014871;28;20966;-78
2024/03/28 14:14:15;;;;;;;0.80;0.23;;;;;;;;;;5014718;28;20450;-79
2024/03/28 14:16:40;;;;;;;0.70;0.50;;;;;;;;;;5014344;28;20473;-79
2024/03/28 14:19:06;;;;;;;0.43;0.20;;;;;;;;;;5014788;28;20428;-82
2024/03/28 14:21:33;;;;;;;0.90;0.47;;;;;;;;;;5014797;28;20790;-79
2024/03/28 14:23:59;;;;;;;1.07;0.50;;;;;;;;;;5014692;28;20781;-79
2024/03/28 14:26:25;;;;;;;0.60;0.40;;;;;;;;;;5014664;28;20414;-79
2024/03/28 14:28:50;;;;;;;0.80;0.50;;;;;;;;;;5014476;28;20179;-80
2024/03/28 14:31:16;;;;;;;0.70;0.50;;;;;;;;;;5012750;28;20797;-79
2024/03/28 14:33:43;;;;;;;1.00;0.40;;;;;;;;;;5014419;28;20414;-80